sensor_id;sensor_type;location;lat;lon;timestamp;temperature;humidity
24374;DHT22;12498;50.880;12.096;2023-04-26T00:00:23;7.30;99.90
24374;DHT22;12498;50.880;12.096;2023-04-26T00:02:49;7.10;99.90
24374;DHT22;12498;50.880;12.096;2023-04-26T00:05:15;7.00;99.90
24374;DHT22;12498;50.880;12.096;2023-04-26T00:07:41;6.70;99.90
24374;DHT22;12498;50.880;12.096;2023-04-26T00:12:56;6.70;99.90
24374;DHT22;12498;50.880;12.096;2023-04-26T00:15:21;6.60;99.90
24374;DHT22;12498;50.880;12.096;2023-04-26T00:17:47;6.70;99.90
24374;DHT22;12498;50.880;12.096;2023-04-26T00:20:13;6.50;99.90
24374;DHT22;12498;50.880;12.096;2023-04-26T00:22:39;6.70;99.90
24374;DHT22;12498;50.880;12.096;2023-04-26T00:25:05;6.80;99.90
24374;DHT22;12498;50.880;12.096;2023-04-26T00:27:32;6.60;99.90
24374;DHT22;12498;50.880;12.096;2023-04-26T00:29:58;6.80;99.90
24374;DHT22;12498;50.880;12.096;2023-04-26T00:32:24;6.50;99.90
24374;DHT22;12498;50.880;12.096;2023-04-26T00:34:49;6.50;99.90
24374;DHT22;12498;50.880;12.096;2023-04-26T00:37:15;6.60;99.90
24374;DHT22;12498;50.880;12.096;2023-04-26T00:42:07;6.40;99.90
24374;DHT22;12498;50.880;12.096;2023-04-26T00:44:32;6.40;99.90
24374;DHT22;12498;50.880;12.096;2023-04-26T00:46:58;6.40;99.90
24374;DHT22;12498;50.880;12.096;2023-04-26T00:49:24;6.50;99.90
24374;DHT22;12498;50.880;12.096;2023-04-26T00:51:51;6.80;99.90
24374;DHT22;12498;50.880;12.096;2023-04-26T00:56:54;6.30;99.90
24374;DHT22;12498;50.880;12.096;2023-04-26T00:59:20;6.30;99.90
24374;DHT22;12498;50.880;12.096;2023-04-26T01:04:13;6.30;99.90
24374;DHT22;12498;50.880;12.096;2023-04-26T01:06:39;6.50;99.90
24374;DHT22;12498;50.880;12.096;2023-04-26T01:09:06;6.30;99.90
24374;DHT22;12498;50.880;12.096;2023-04-26T01:11:34;6.30;99.90
24374;DHT22;12498;50.880;12.096;2023-04-26T01:14:01;6.50;99.90
24374;DHT22;12498;50.880;12.096;2023-04-26T01:16:29;6.40;99.90
24374;DHT22;12498;50.880;12.096;2023-04-26T01:18:55;6.40;99.90
24374;DHT22;12498;50.880;12.096;2023-04-26T01:21:22;6.30;99.90
24374;DHT22;12498;50.880;12.096;2023-04-26T01:23:49;6.40;99.90
24374;DHT22;12498;50.880;12.096;2023-04-26T01:28:41;6.10;99.90
24374;DHT22;12498;50.880;12.096;2023-04-26T01:35:59;6.00;99.90
24374;DHT22;12498;50.880;12.096;2023-04-26T01:38:24;6.40;1.00
24374;DHT22;12498;50.880;12.096;2023-04-26T01:40:50;6.10;1.00
24374;DHT22;12498;50.880;12.096;2023-04-26T01:43:15;6.10;1.00
24374;DHT22;12498;50.880;12.096;2023-04-26T01:45:47;6.40;1.00
24374;DHT22;12498;50.880;12.096;2023-04-26T01:48:14;6.20;1.00
24374;DHT22;12498;50.880;12.096;2023-04-26T01:50:39;6.10;1.00
24374;DHT22;12498;50.880;12.096;2023-04-26T01:53:05;6.10;1.00
24374;DHT22;12498;50.880;12.096;2023-04-26T01:57:58;5.90;1.00
24374;DHT22;12498;50.880;12.096;2023-04-26T02:00:26;5.90;1.00
24374;DHT22;12498;50.880;12.096;2023-04-26T02:12:40;5.70;1.00
24374;DHT22;12498;50.880;12.096;2023-04-26T02:59:01;5.20;1.00
24374;DHT22;12498;50.880;12.096;2023-04-26T03:16:13;5.10;1.00
24374;DHT22;12498;50.880;12.096;2023-04-26T03:18:39;5.10;1.00
24374;DHT22;12498;50.880;12.096;2023-04-26T03:25:57;4.70;1.00
24374;DHT22;12498;50.880;12.096;2023-04-26T03:28:23;4.90;1.00
24374;DHT22;12498;50.880;12.096;2023-04-26T03:30:48;5.10;1.00
24374;DHT22;12498;50.880;12.096;2023-04-26T03:33:14;5.30;1.00
24374;DHT22;12498;50.880;12.096;2023-04-26T03:35:42;4.70;1.00
24374;DHT22;12498;50.880;12.096;2023-04-26T03:38:07;4.80;1.00
24374;DHT22;12498;50.880;12.096;2023-04-26T03:40:33;5.00;1.00
24374;DHT22;12498;50.880;12.096;2023-04-26T03:42:58;4.90;1.00
24374;DHT22;12498;50.880;12.096;2023-04-26T03:48:10;4.20;1.00
24374;DHT22;12498;50.880;12.096;2023-04-26T03:50:35;4.60;1.00
24374;DHT22;12498;50.880;12.096;2023-04-26T03:53:01;4.60;1.00
24374;DHT22;12498;50.880;12.096;2023-04-26T03:55:26;4.50;1.00
24374;DHT22;12498;50.880;12.096;2023-04-26T03:57:52;4.60;1.00
24374;DHT22;12498;50.880;12.096;2023-04-26T04:00:18;4.90;1.00
24374;DHT22;12498;50.880;12.096;2023-04-26T04:02:44;4.70;1.00
24374;DHT22;12498;50.880;12.096;2023-04-26T04:05:09;4.70;1.00
24374;DHT22;12498;50.880;12.096;2023-04-26T04:07:35;4.50;1.00
24374;DHT22;12498;50.880;12.096;2023-04-26T04:10:01;4.70;1.00
24374;DHT22;12498;50.880;12.096;2023-04-26T04:17:19;4.60;1.00
24374;DHT22;12498;50.880;12.096;2023-04-26T04:19:44;4.70;1.00
24374;DHT22;12498;50.880;12.096;2023-04-26T04:27:17;4.30;1.00
24374;DHT22;12498;50.880;12.096;2023-04-26T04:29:43;5.10;94.10
24374;DHT22;12498;50.880;12.096;2023-04-26T04:34:35;5.30;94.10
24374;DHT22;12498;50.880;12.096;2023-04-26T04:37:01;5.70;99.90
24374;DHT22;12498;50.880;12.096;2023-04-26T04:39:26;6.10;99.90
24374;DHT22;12498;50.880;12.096;2023-04-26T04:44:37;6.30;68.90
24374;DHT22;12498;50.880;12.096;2023-04-26T04:47:04;6.40;1.00
24374;DHT22;12498;50.880;12.096;2023-04-26T04:49:29;6.40;1.00
24374;DHT22;12498;50.880;12.096;2023-04-26T04:51:56;6.50;25.20
24374;DHT22;12498;50.880;12.096;2023-04-26T04:54:21;6.30;1.00
24374;DHT22;12498;50.880;12.096;2023-04-26T04:56:47;6.20;1.00
24374;DHT22;12498;50.880;12.096;2023-04-26T04:59:13;5.90;1.00
24374;DHT22;12498;50.880;12.096;2023-04-26T05:01:38;5.50;1.00
24374;DHT22;12498;50.880;12.096;2023-04-26T05:04:05;5.30;1.00
24374;DHT22;12498;50.880;12.096;2023-04-26T05:06:31;5.10;1.00
24374;DHT22;12498;50.880;12.096;2023-04-26T05:08:57;5.20;1.00
24374;DHT22;12498;50.880;12.096;2023-04-26T05:13:51;4.90;1.00
24374;DHT22;12498;50.880;12.096;2023-04-26T05:16:17;4.80;1.00
24374;DHT22;12498;50.880;12.096;2023-04-26T05:18:42;4.90;1.00
24374;DHT22;12498;50.880;12.096;2023-04-26T05:21:08;5.00;1.00
24374;DHT22;12498;50.880;12.096;2023-04-26T05:23:34;4.80;1.00
24374;DHT22;12498;50.880;12.096;2023-04-26T05:26:02;4.90;1.00
24374;DHT22;12498;50.880;12.096;2023-04-26T05:28:29;4.80;1.00
24374;DHT22;12498;50.880;12.096;2023-04-26T05:30:54;4.90;1.00
24374;DHT22;12498;50.880;12.096;2023-04-26T05:33:20;5.00;1.00
24374;DHT22;12498;50.880;12.096;2023-04-26T05:35:46;5.10;1.00
24374;DHT22;12498;50.880;12.096;2023-04-26T05:38:11;5.20;1.00
24374;DHT22;12498;50.880;12.096;2023-04-26T05:43:24;5.40;1.00
24374;DHT22;12498;50.880;12.096;2023-04-26T05:45:53;4.90;1.00
24374;DHT22;12498;50.880;12.096;2023-04-26T06:29:45;5.40;1.00
24374;DHT22;12498;50.880;12.096;2023-04-26T06:32:10;5.60;1.00
24374;DHT22;12498;50.880;12.096;2023-04-26T06:34:36;5.80;1.00
24374;DHT22;12498;50.880;12.096;2023-04-26T06:37:03;6.00;1.00
24374;DHT22;12498;50.880;12.096;2023-04-26T06:39:29;5.90;1.00
24374;DHT22;12498;50.880;12.096;2023-04-26T06:41:55;5.90;1.00
24374;DHT22;12498;50.880;12.096;2023-04-26T06:49:48;6.10;99.90
24374;DHT22;12498;50.880;12.096;2023-04-26T06:52:14;6.20;99.90
24374;DHT22;12498;50.880;12.096;2023-04-26T06:54:40;6.10;99.90
24374;DHT22;12498;50.880;12.096;2023-04-26T06:57:05;6.30;99.90
24374;DHT22;12498;50.880;12.096;2023-04-26T07:01:57;6.30;99.90
24374;DHT22;12498;50.880;12.096;2023-04-26T07:04:23;7.00;99.90
24374;DHT22;12498;50.880;12.096;2023-04-26T07:06:49;6.90;99.90
24374;DHT22;12498;50.880;12.096;2023-04-26T07:09:15;7.10;99.90
24374;DHT22;12498;50.880;12.096;2023-04-26T07:14:11;7.10;99.90
24374;DHT22;12498;50.880;12.096;2023-04-26T07:16:37;7.40;99.90
24374;DHT22;12498;50.880;12.096;2023-04-26T07:19:03;7.00;48.60
24374;DHT22;12498;50.880;12.096;2023-04-26T07:21:28;6.70;99.90
24374;DHT22;12498;50.880;12.096;2023-04-26T07:23:55;6.70;99.90
24374;DHT22;12498;50.880;12.096;2023-04-26T07:26:24;6.70;99.90
24374;DHT22;12498;50.880;12.096;2023-04-26T07:28:51;7.00;99.90
24374;DHT22;12498;50.880;12.096;2023-04-26T07:31:17;6.90;99.90
24374;DHT22;12498;50.880;12.096;2023-04-26T07:33:42;7.30;99.90
24374;DHT22;12498;50.880;12.096;2023-04-26T07:36:08;7.00;99.90
24374;DHT22;12498;50.880;12.096;2023-04-26T07:38:34;7.00;22.20
24374;DHT22;12498;50.880;12.096;2023-04-26T07:40:59;6.80;1.00
24374;DHT22;12498;50.880;12.096;2023-04-26T07:43:29;6.70;99.90
24374;DHT22;12498;50.880;12.096;2023-04-26T07:46:04;6.70;96.10
24374;DHT22;12498;50.880;12.096;2023-04-26T07:48:30;6.70;99.90
24374;DHT22;12498;50.880;12.096;2023-04-26T07:50:56;7.00;99.90
24374;DHT22;12498;50.880;12.096;2023-04-26T07:53:22;7.40;99.90
24374;DHT22;12498;50.880;12.096;2023-04-26T07:55:49;7.70;1.00
24374;DHT22;12498;50.880;12.096;2023-04-26T07:58:15;7.60;79.30
24374;DHT22;12498;50.880;12.096;2023-04-26T08:00:41;7.30;1.00
24374;DHT22;12498;50.880;12.096;2023-04-26T08:03:07;7.30;99.90
24374;DHT22;12498;50.880;12.096;2023-04-26T08:05:33;7.30;99.90
24374;DHT22;12498;50.880;12.096;2023-04-26T08:07:58;7.30;99.90
24374;DHT22;12498;50.880;12.096;2023-04-26T08:10:26;7.20;99.90
24374;DHT22;12498;50.880;12.096;2023-04-26T08:12:55;7.40;99.90
24374;DHT22;12498;50.880;12.096;2023-04-26T08:15:22;7.40;99.90
24374;DHT22;12498;50.880;12.096;2023-04-26T08:17:47;7.60;99.90
24374;DHT22;12498;50.880;12.096;2023-04-26T08:20:17;7.70;82.00
24374;DHT22;12498;50.880;12.096;2023-04-26T08:22:42;7.80;1.00
24374;DHT22;12498;50.880;12.096;2023-04-26T08:25:09;7.50;1.00
24374;DHT22;12498;50.880;12.096;2023-04-26T08:27:35;7.60;1.00
24374;DHT22;12498;50.880;12.096;2023-04-26T08:30:01;7.70;99.90
24374;DHT22;12498;50.880;12.096;2023-04-26T08:32:26;7.80;1.00
24374;DHT22;12498;50.880;12.096;2023-04-26T08:34:52;8.10;1.00
24374;DHT22;12498;50.880;12.096;2023-04-26T08:37:18;8.50;1.00
24374;DHT22;12498;50.880;12.096;2023-04-26T08:39:43;8.50;99.90
24374;DHT22;12498;50.880;12.096;2023-04-26T08:42:16;8.50;99.90
24374;DHT22;12498;50.880;12.096;2023-04-26T08:44:43;8.50;99.90
24374;DHT22;12498;50.880;12.096;2023-04-26T08:47:15;8.40;99.90
24374;DHT22;12498;50.880;12.096;2023-04-26T08:49:46;8.30;99.90
24374;DHT22;12498;50.880;12.096;2023-04-26T08:52:18;8.20;99.90
24374;DHT22;12498;50.880;12.096;2023-04-26T08:54:49;8.70;99.90
24374;DHT22;12498;50.880;12.096;2023-04-26T09:07:13;9.00;1.00
24374;DHT22;12498;50.880;12.096;2023-04-26T09:09:41;9.10;6.70
24374;DHT22;12498;50.880;12.096;2023-04-26T09:12:07;8.80;99.90
24374;DHT22;12498;50.880;12.096;2023-04-26T09:14:33;8.80;99.90
24374;DHT22;12498;50.880;12.096;2023-04-26T09:16:59;9.10;1.00
24374;DHT22;12498;50.880;12.096;2023-04-26T09:19:35;8.90;24.70
24374;DHT22;12498;50.880;12.096;2023-04-26T09:22:01;9.00;40.10
24374;DHT22;12498;50.880;12.096;2023-04-26T09:24:28;9.50;1.00
24374;DHT22;12498;50.880;12.096;2023-04-26T09:27:02;9.10;99.90
24374;DHT22;12498;50.880;12.096;2023-04-26T09:29:28;9.20;99.90
24374;DHT22;12498;50.880;12.096;2023-04-26T09:31:54;9.20;1.00
24374;DHT22;12498;50.880;12.096;2023-04-26T09:34:20;9.20;32.80
24374;DHT22;12498;50.880;12.096;2023-04-26T09:36:55;9.30;99.90
24374;DHT22;12498;50.880;12.096;2023-04-26T09:39:38;9.70;99.90
24374;DHT22;12498;50.880;12.096;2023-04-26T09:42:05;10.40;99.90
24374;DHT22;12498;50.880;12.096;2023-04-26T09:44:31;10.80;1.00
24374;DHT22;12498;50.880;12.096;2023-04-26T09:46:58;10.10;1.00
24374;DHT22;12498;50.880;12.096;2023-04-26T09:49:29;9.60;89.90
24374;DHT22;12498;50.880;12.096;2023-04-26T09:52:00;9.80;1.00
24374;DHT22;12498;50.880;12.096;2023-04-26T09:57:31;10.60;99.90
24374;DHT22;12498;50.880;12.096;2023-04-26T09:59:57;11.20;1.00
24374;DHT22;12498;50.880;12.096;2023-04-26T10:02:26;11.00;99.90
24374;DHT22;12498;50.880;12.096;2023-04-26T10:04:54;10.70;1.00
24374;DHT22;12498;50.880;12.096;2023-04-26T10:07:22;10.30;45.50
24374;DHT22;12498;50.880;12.096;2023-04-26T10:09:48;9.90;1.00
24374;DHT22;12498;50.880;12.096;2023-04-26T10:12:16;9.80;1.00
24374;DHT22;12498;50.880;12.096;2023-04-26T10:14:43;9.60;1.00
24374;DHT22;12498;50.880;12.096;2023-04-26T10:17:10;10.50;1.00
24374;DHT22;12498;50.880;12.096;2023-04-26T10:19:40;11.20;99.90
24374;DHT22;12498;50.880;12.096;2023-04-26T10:22:18;12.40;1.00
24374;DHT22;12498;50.880;12.096;2023-04-26T10:24:45;12.70;17.50
24374;DHT22;12498;50.880;12.096;2023-04-26T10:27:12;12.10;99.90
24374;DHT22;12498;50.880;12.096;2023-04-26T10:32:19;11.10;99.90
24374;DHT22;12498;50.880;12.096;2023-04-26T10:35:08;10.90;1.00
24374;DHT22;12498;50.880;12.096;2023-04-26T10:37:35;11.40;1.00
24374;DHT22;12498;50.880;12.096;2023-04-26T10:40:25;13.30;99.90
24374;DHT22;12498;50.880;12.096;2023-04-26T10:45:42;13.30;99.90
24374;DHT22;12498;50.880;12.096;2023-04-26T10:55:58;10.90;99.90
24374;DHT22;12498;50.880;12.096;2023-04-26T10:58:28;10.70;99.90
24374;DHT22;12498;50.880;12.096;2023-04-26T11:03:36;13.00;99.90
24374;DHT22;12498;50.880;12.096;2023-04-26T11:06:09;15.10;99.90
24374;DHT22;12498;50.880;12.096;2023-04-26T11:08:38;14.40;15.70
24374;DHT22;12498;50.880;12.096;2023-04-26T11:13:41;12.00;1.00
24374;DHT22;12498;50.880;12.096;2023-04-26T11:16:16;11.60;99.90
24374;DHT22;12498;50.880;12.096;2023-04-26T11:18:43;11.20;99.90
24374;DHT22;12498;50.880;12.096;2023-04-26T11:21:09;11.20;99.90
24374;DHT22;12498;50.880;12.096;2023-04-26T11:23:36;10.80;99.90
24374;DHT22;12498;50.880;12.096;2023-04-26T11:26:04;11.60;99.90
24374;DHT22;12498;50.880;12.096;2023-04-26T11:28:31;11.90;99.90
24374;DHT22;12498;50.880;12.096;2023-04-26T11:30:57;13.10;99.90
24374;DHT22;12498;50.880;12.096;2023-04-26T11:33:23;13.30;99.90
24374;DHT22;12498;50.880;12.096;2023-04-26T11:35:53;15.00;99.90
24374;DHT22;12498;50.880;12.096;2023-04-26T11:38:23;16.90;99.90
24374;DHT22;12498;50.880;12.096;2023-04-26T11:41:07;16.40;99.90
24374;DHT22;12498;50.880;12.096;2023-04-26T11:43:36;14.20;66.40
24374;DHT22;12498;50.880;12.096;2023-04-26T11:46:03;13.00;99.90
24374;DHT22;12498;50.880;12.096;2023-04-26T11:48:29;12.20;17.80
24374;DHT22;12498;50.880;12.096;2023-04-26T11:50:59;11.70;25.50
24374;DHT22;12498;50.880;12.096;2023-04-26T11:53:34;11.40;1.00
24374;DHT22;12498;50.880;12.096;2023-04-26T11:56:00;11.90;1.00
24374;DHT22;12498;50.880;12.096;2023-04-26T11:58:26;13.90;1.00
24374;DHT22;12498;50.880;12.096;2023-04-26T12:01:00;15.40;26.10
24374;DHT22;12498;50.880;12.096;2023-04-26T12:03:32;15.60;99.90
24374;DHT22;12498;50.880;12.096;2023-04-26T12:06:02;14.90;99.90
24374;DHT22;12498;50.880;12.096;2023-04-26T12:08:28;13.40;99.90
24374;DHT22;12498;50.880;12.096;2023-04-26T12:10:58;12.50;99.90
24374;DHT22;12498;50.880;12.096;2023-04-26T12:13:25;12.10;99.90
24374;DHT22;12498;50.880;12.096;2023-04-26T12:15:51;11.80;56.20
24374;DHT22;12498;50.880;12.096;2023-04-26T12:18:17;11.50;1.00
24374;DHT22;12498;50.880;12.096;2023-04-26T12:20:43;12.30;19.00
24374;DHT22;12498;50.880;12.096;2023-04-26T12:23:16;13.70;1.00
24374;DHT22;12498;50.880;12.096;2023-04-26T12:25:54;14.80;53.80
24374;DHT22;12498;50.880;12.096;2023-04-26T12:28:20;16.30;99.90
24374;DHT22;12498;50.880;12.096;2023-04-26T12:30:46;15.90;99.90
24374;DHT22;12498;50.880;12.096;2023-04-26T12:33:12;15.00;1.00
24374;DHT22;12498;50.880;12.096;2023-04-26T12:35:38;14.40;1.00
24374;DHT22;12498;50.880;12.096;2023-04-26T12:38:04;14.30;1.00
24374;DHT22;12498;50.880;12.096;2023-04-26T12:40:30;13.40;1.00
24374;DHT22;12498;50.880;12.096;2023-04-26T12:42:57;12.50;1.00
24374;DHT22;12498;50.880;12.096;2023-04-26T12:45:23;12.30;1.00
24374;DHT22;12498;50.880;12.096;2023-04-26T12:47:52;12.30;1.00
24374;DHT22;12498;50.880;12.096;2023-04-26T12:50:18;12.70;1.00
24374;DHT22;12498;50.880;12.096;2023-04-26T12:52:44;13.00;1.00
24374;DHT22;12498;50.880;12.096;2023-04-26T13:31:55;15.70;99.90
24374;DHT22;12498;50.880;12.096;2023-04-26T13:34:20;14.80;99.90
24374;DHT22;12498;50.880;12.096;2023-04-26T13:36:46;13.90;99.90
24374;DHT22;12498;50.880;12.096;2023-04-26T13:39:12;13.50;99.90
24374;DHT22;12498;50.880;12.096;2023-04-26T13:41:38;13.60;99.90
24374;DHT22;12498;50.880;12.096;2023-04-26T13:44:04;14.00;99.90
24374;DHT22;12498;50.880;12.096;2023-04-26T15:14:14;11.70;99.90
24374;DHT22;12498;50.880;12.096;2023-04-26T15:19:06;12.50;99.90
24374;DHT22;12498;50.880;12.096;2023-04-26T15:36:08;11.80;99.90
24374;DHT22;12498;50.880;12.096;2023-04-26T15:38:34;11.80;99.90
24374;DHT22;12498;50.880;12.096;2023-04-26T15:43:26;11.30;99.90
24374;DHT22;12498;50.880;12.096;2023-04-26T15:48:18;11.30;99.90
24374;DHT22;12498;50.880;12.096;2023-04-26T15:50:44;11.20;99.90
24374;DHT22;12498;50.880;12.096;2023-04-26T15:53:10;11.40;1.00
24374;DHT22;12498;50.880;12.096;2023-04-26T16:37:09;11.10;99.90
24374;DHT22;12498;50.880;12.096;2023-04-26T17:35:48;9.80;1.00
24374;DHT22;12498;50.880;12.096;2023-04-26T17:38:14;9.80;99.90
24374;DHT22;12498;50.880;12.096;2023-04-26T17:40:40;9.60;1.00
24374;DHT22;12498;50.880;12.096;2023-04-26T17:43:05;9.50;99.90
24374;DHT22;12498;50.880;12.096;2023-04-26T17:50:29;9.30;99.90
24374;DHT22;12498;50.880;12.096;2023-04-26T18:00:13;9.30;55.60
24374;DHT22;12498;50.880;12.096;2023-04-26T18:02:40;9.40;99.90
24374;DHT22;12498;50.880;12.096;2023-04-26T18:05:06;9.40;99.90
24374;DHT22;12498;50.880;12.096;2023-04-26T18:07:32;9.30;99.90
24374;DHT22;12498;50.880;12.096;2023-04-26T18:09:58;9.20;1.00
24374;DHT22;12498;50.880;12.096;2023-04-26T18:12:24;9.10;1.00
24374;DHT22;12498;50.880;12.096;2023-04-26T18:14:50;9.00;99.90
24374;DHT22;12498;50.880;12.096;2023-04-26T18:58:46;8.50;1.00
24374;DHT22;12498;50.880;12.096;2023-04-26T19:01:12;8.60;1.00
24374;DHT22;12498;50.880;12.096;2023-04-26T19:03:38;8.60;1.00
24374;DHT22;12498;50.880;12.096;2023-04-26T19:06:10;8.70;1.00
24374;DHT22;12498;50.880;12.096;2023-04-26T19:08:40;8.70;1.00
24374;DHT22;12498;50.880;12.096;2023-04-26T19:11:06;8.70;99.90
24374;DHT22;12498;50.880;12.096;2023-04-26T19:13:39;8.70;1.00
24374;DHT22;12498;50.880;12.096;2023-04-26T19:16:06;8.60;99.90
24374;DHT22;12498;50.880;12.096;2023-04-26T19:18:32;8.60;1.00
24374;DHT22;12498;50.880;12.096;2023-04-26T19:21:06;8.60;99.90
24374;DHT22;12498;50.880;12.096;2023-04-26T19:23:32;8.60;17.60
24374;DHT22;12498;50.880;12.096;2023-04-26T19:26:05;8.50;99.90
24374;DHT22;12498;50.880;12.096;2023-04-26T19:28:32;8.50;99.90
24374;DHT22;12498;50.880;12.096;2023-04-26T19:30:59;8.60;1.00
24374;DHT22;12498;50.880;12.096;2023-04-26T19:33:26;8.40;1.00
24374;DHT22;12498;50.880;12.096;2023-04-26T19:35:52;8.30;1.00
24374;DHT22;12498;50.880;12.096;2023-04-26T19:38:18;8.30;1.00
24374;DHT22;12498;50.880;12.096;2023-04-26T19:40:44;8.30;99.90
24374;DHT22;12498;50.880;12.096;2023-04-26T19:43:10;8.20;99.90
24374;DHT22;12498;50.880;12.096;2023-04-26T19:45:36;8.20;98.70
24374;DHT22;12498;50.880;12.096;2023-04-26T19:48:03;8.50;99.90
24374;DHT22;12498;50.880;12.096;2023-04-26T19:50:29;8.20;99.90
24374;DHT22;12498;50.880;12.096;2023-04-26T19:52:55;8.50;99.90
24374;DHT22;12498;50.880;12.096;2023-04-26T19:55:21;8.10;1.00
24374;DHT22;12498;50.880;12.096;2023-04-26T19:57:46;8.10;99.90
24374;DHT22;12498;50.880;12.096;2023-04-26T20:00:13;8.10;1.00
24374;DHT22;12498;50.880;12.096;2023-04-26T20:02:40;8.00;1.00
24374;DHT22;12498;50.880;12.096;2023-04-26T20:05:06;7.90;99.90
24374;DHT22;12498;50.880;12.096;2023-04-26T20:07:32;8.00;99.90
24374;DHT22;12498;50.880;12.096;2023-04-26T20:09:58;8.10;99.90
24374;DHT22;12498;50.880;12.096;2023-04-26T20:12:23;7.90;99.90
24374;DHT22;12498;50.880;12.096;2023-04-26T20:14:49;7.80;99.90
24374;DHT22;12498;50.880;12.096;2023-04-26T20:17:15;7.90;99.90
24374;DHT22;12498;50.880;12.096;2023-04-26T20:19:40;8.10;99.90
24374;DHT22;12498;50.880;12.096;2023-04-26T20:22:07;8.00;99.90
24374;DHT22;12498;50.880;12.096;2023-04-26T20:24:32;8.30;99.90
24374;DHT22;12498;50.880;12.096;2023-04-26T20:26:58;7.80;1.00
24374;DHT22;12498;50.880;12.096;2023-04-26T20:29:23;7.80;1.00
24374;DHT22;12498;50.880;12.096;2023-04-26T20:31:49;8.00;99.90
24374;DHT22;12498;50.880;12.096;2023-04-26T20:34:15;7.90;99.90
24374;DHT22;12498;50.880;12.096;2023-04-26T20:36:41;8.00;1.00
24374;DHT22;12498;50.880;12.096;2023-04-26T20:39:06;8.00;1.00
24374;DHT22;12498;50.880;12.096;2023-04-26T20:41:34;7.70;1.00
24374;DHT22;12498;50.880;12.096;2023-04-26T20:44:00;7.70;1.00
24374;DHT22;12498;50.880;12.096;2023-04-26T20:46:26;8.00;1.00
24374;DHT22;12498;50.880;12.096;2023-04-26T20:48:51;7.50;1.00
24374;DHT22;12498;50.880;12.096;2023-04-26T20:51:17;7.90;1.00
24374;DHT22;12498;50.880;12.096;2023-04-26T20:53:42;7.50;1.00
24374;DHT22;12498;50.880;12.096;2023-04-26T20:56:08;7.60;1.00
24374;DHT22;12498;50.880;12.096;2023-04-26T20:58:34;7.50;1.00
24374;DHT22;12498;50.880;12.096;2023-04-26T21:00:59;7.80;1.00
24374;DHT22;12498;50.880;12.096;2023-04-26T21:03:25;7.30;7.80
24374;DHT22;12498;50.880;12.096;2023-04-26T21:05:51;7.40;16.80
24374;DHT22;12498;50.880;12.096;2023-04-26T21:08:16;7.40;39.30
24374;DHT22;12498;50.880;12.096;2023-04-26T21:10:42;7.50;61.10
24374;DHT22;12498;50.880;12.096;2023-04-26T21:13:08;7.40;98.60
24374;DHT22;12498;50.880;12.096;2023-04-26T21:15:33;7.50;99.90
24374;DHT22;12498;50.880;12.096;2023-04-26T21:17:59;7.40;99.90
24374;DHT22;12498;50.880;12.096;2023-04-26T21:20:25;7.50;99.90
24374;DHT22;12498;50.880;12.096;2023-04-26T21:22:50;7.50;54.70
24374;DHT22;12498;50.880;12.096;2023-04-26T21:25:16;7.50;22.40
24374;DHT22;12498;50.880;12.096;2023-04-26T21:27:44;7.40;1.00
24374;DHT22;12498;50.880;12.096;2023-04-26T21:30:10;7.50;1.00
24374;DHT22;12498;50.880;12.096;2023-04-26T21:32:36;7.10;99.90
24374;DHT22;12498;50.880;12.096;2023-04-26T21:35:05;7.60;1.00
24374;DHT22;12498;50.880;12.096;2023-04-26T21:37:31;7.40;1.00
24374;DHT22;12498;50.880;12.096;2023-04-26T21:39:57;7.40;9.20
24374;DHT22;12498;50.880;12.096;2023-04-26T21:42:25;7.70;39.40
24374;DHT22;12498;50.880;12.096;2023-04-26T21:44:50;7.50;58.50
24374;DHT22;12498;50.880;12.096;2023-04-26T21:47:16;7.30;4.00
24374;DHT22;12498;50.880;12.096;2023-04-26T21:49:42;7.70;1.00
24374;DHT22;12498;50.880;12.096;2023-04-26T21:52:07;7.20;1.00
24374;DHT22;12498;50.880;12.096;2023-04-26T21:54:33;7.30;11.60
24374;DHT22;12498;50.880;12.096;2023-04-26T21:57:00;7.30;1.00
24374;DHT22;12498;50.880;12.096;2023-04-26T21:59:26;7.40;1.00
24374;DHT22;12498;50.880;12.096;2023-04-26T22:01:52;7.30;16.80
24374;DHT22;12498;50.880;12.096;2023-04-26T22:04:17;7.20;90.40
24374;DHT22;12498;50.880;12.096;2023-04-26T22:06:43;7.30;99.90
24374;DHT22;12498;50.880;12.096;2023-04-26T22:09:09;7.30;99.90
24374;DHT22;12498;50.880;12.096;2023-04-26T22:11:35;6.90;99.90
24374;DHT22;12498;50.880;12.096;2023-04-26T22:14:01;6.80;99.90
24374;DHT22;12498;50.880;12.096;2023-04-26T22:16:26;6.90;99.90
24374;DHT22;12498;50.880;12.096;2023-04-26T22:18:52;6.80;99.90
24374;DHT22;12498;50.880;12.096;2023-04-26T22:21:18;6.80;99.90
24374;DHT22;12498;50.880;12.096;2023-04-26T22:23:43;6.80;99.90
24374;DHT22;12498;50.880;12.096;2023-04-26T22:26:09;7.00;99.90
24374;DHT22;12498;50.880;12.096;2023-04-26T22:28:34;6.50;99.90
24374;DHT22;12498;50.880;12.096;2023-04-26T22:31:00;6.50;99.90
24374;DHT22;12498;50.880;12.096;2023-04-26T22:33:26;6.80;99.90
24374;DHT22;12498;50.880;12.096;2023-04-26T22:35:51;6.70;99.90
24374;DHT22;12498;50.880;12.096;2023-04-26T22:38:24;6.30;99.90
24374;DHT22;12498;50.880;12.096;2023-04-26T22:40:50;6.60;99.90
24374;DHT22;12498;50.880;12.096;2023-04-26T22:43:16;6.20;99.90
24374;DHT22;12498;50.880;12.096;2023-04-26T22:45:42;6.20;99.90
24374;DHT22;12498;50.880;12.096;2023-04-26T22:48:07;6.30;99.90
24374;DHT22;12498;50.880;12.096;2023-04-26T22:50:33;6.10;99.90
24374;DHT22;12498;50.880;12.096;2023-04-26T22:52:58;6.40;1.00
24374;DHT22;12498;50.880;12.096;2023-04-26T22:55:24;6.30;1.00
24374;DHT22;12498;50.880;12.096;2023-04-26T22:57:50;6.10;1.00
24374;DHT22;12498;50.880;12.096;2023-04-26T23:00:15;6.20;1.00
24374;DHT22;12498;50.880;12.096;2023-04-26T23:02:41;5.80;1.00
24374;DHT22;12498;50.880;12.096;2023-04-26T23:05:07;5.90;1.00
24374;DHT22;12498;50.880;12.096;2023-04-26T23:07:35;6.00;1.00
24374;DHT22;12498;50.880;12.096;2023-04-26T23:10:01;6.10;1.00
24374;DHT22;12498;50.880;12.096;2023-04-26T23:12:26;5.90;1.00
24374;DHT22;12498;50.880;12.096;2023-04-26T23:14:55;6.20;1.00
24374;DHT22;12498;50.880;12.096;2023-04-26T23:17:22;6.20;1.00
24374;DHT22;12498;50.880;12.096;2023-04-26T23:19:48;5.90;1.00
24374;DHT22;12498;50.880;12.096;2023-04-26T23:22:13;6.10;1.00
24374;DHT22;12498;50.880;12.096;2023-04-26T23:24:40;5.70;1.00
24374;DHT22;12498;50.880;12.096;2023-04-26T23:27:05;5.60;1.00
24374;DHT22;12498;50.880;12.096;2023-04-26T23:29:31;5.70;1.00
24374;DHT22;12498;50.880;12.096;2023-04-26T23:31:56;5.80;1.00
24374;DHT22;12498;50.880;12.096;2023-04-26T23:34:22;6.00;1.00
24374;DHT22;12498;50.880;12.096;2023-04-26T23:36:48;5.60;1.00
24374;DHT22;12498;50.880;12.096;2023-04-26T23:39:13;5.60;1.00
24374;DHT22;12498;50.880;12.096;2023-04-26T23:41:39;5.50;1.00
24374;DHT22;12498;50.880;12.096;2023-04-26T23:44:05;5.60;1.00
24374;DHT22;12498;50.880;12.096;2023-04-26T23:46:31;5.80;1.00
24374;DHT22;12498;50.880;12.096;2023-04-26T23:48:57;5.70;1.00